CheckWX is a tool to help pilots better visualize weather data.  It is not intended as a substitute for an official pre-flight weather briefing.

20:12:53 UTC

KBUU METAR
Burlington Municipal Airport
Burlington, Wisconsin, USA
Current

18 mins ago

KBUU 311955Z AUTO 00000KT 10SM CLR 20/04 A3030 RMK AO2 T01970042
Observed
May-31 @ 19:55 UTC
Visibility
Flight Rules
VFR
Cloud Levels
  • Clear skies
Temperature
20°C / 68°F
Dewpoint
C / 39°F
Humidity
35%
Altimeter
30.3" Hg
Pressure
1026.12 hPa
Previous

38 mins ago

KBUU 311935Z AUTO 00000KT 10SM CLR 19/05 A3031 RMK AO2 T01910045
Observed
May-31 @ 19:35 UTC
Visibility
Flight Rules
VFR
Cloud Levels
  • Clear skies
Temperature
19°C / 66°F
Dewpoint
C / 39°F
Humidity
37%
Altimeter
30.31" Hg
Pressure
1026.42 hPa
Previous

58 mins ago

KBUU 311915Z AUTO 00000KT 10SM CLR 19/05 A3031 RMK AO2 T01910053
Observed
May-31 @ 19:15 UTC
Visibility
Flight Rules
VFR
Cloud Levels
  • Clear skies
Temperature
19°C / 66°F
Dewpoint
C / 41°F
Humidity
40%
Altimeter
30.31" Hg
Pressure
1026.42 hPa